03:21
Airports
History
Links
Donate
Help keep this website running!
PayPal
Bitcoin
Information on this page is community maintained and may be outdated or inaccurate and is intended for reference only or PC simulator navigating!
Always use approved charts for navigating.
SBEG
Eduardo Gomes
Eduardo Gomes (SBEG)
Manaus, Amazonas, Brazil (69049)
(C)
Lat/Lng:3° 2' 19" S / 60° 2' 59" W
-3.038611 / -60.049723
Elevation:264'ft 80mMSL
ID / ICAO:SBEG
Runways:1
Longest:(10-28) 2,703.7m 8,870ft Asphalt
Controlled:Yes
Distance To
Airport ID:
Airport Radio Frequencies
ATIS: 127.65
Ground: 121.9
Tower: 118.3
Approach: 119.1, 119.7, 120.4, 122.8
METARUpdated 03-26-17 03:00 GMT
Altimeter: 29.88
Visibility: 6.2 statute miles
Wind: 4 knots (100°)
Temp: 24°c 75°f
Humidity: 94.2%

METAR: SBEG 260300Z 10004KT 9999 FEW010 SCT100 24/23 Q1012

(Powered by phpweather)
Runway 10 / 28
Dimensions:2703.7 x 45.1m 8870' x 148'ft
Surface:Asphalt
Edge Lights:High intensity
Runway 10 [A]Runway 28 [B]
Heading:090°TH 270°TH
Lat:
Lng:
3° 2' 18.9"S
60° 3' 42.8"W
3° 2' 19.1"S
60° 2' 15.2"W
ALS:ALSF-I
TDZ:Yes, lighted
Google Map
Nearby Airports
(U) Flores 3.1 NM
SWFN SE 140°
(C) PONTA PELADA 8.6 NM
SBMN (WX) SSE 149°
(C) Mountain Point 28.9 NM
SYMP E 84°
4 Fazenda Planura 47.1 NM
SIFN SE 144°
(C) Lumid Pau 61.3 NM
SYLP NE 43°
(C) Aishalton 63.7 NM
SYAH NE 52°
(C) Awaruwaunau 64.5 NM
SYAW ENE 65°
VFR Chart
Flight Planning at SkyVector.com